Latest Weather Observations for Tewantin

IDQ60901

Issued at 8:21 am EST Tuesday 26 September 2017 (issued every 10 minutes, with the page automatically refreshed every 10 minutes)

About weather observations | Map of Brisbane area stations | Latest observations for Brisbane area | Other Formats
Station Details ID: 040908 Name: TEWANTIN RSL PARK Lat: -26.39 Lon: 153.04 Height: 6.4 m
Data from the previous 72 hours. | See also: Recent months at Tewantin
Date/Time
EST
Temp
°C
App
Temp
°C
Dew
Point
°C
Rel
Hum
%
Delta-T
°C
Wind Press
QNH
hPa
Press
MSL
hPa
Rain since
9am
mm
Dir  Spd
km/h
Gust
km/h
Spd
kts
Gust
kts
26/08:00am 21.7 21.3 18.1 80 2.2 N 17 20 9 11 1014.6 1014.6 0.0
26/07:30am 20.7 22.0 18.5 87 1.4 NNW 9 15 5 8 1014.9 1014.9 0.0
26/07:00am 19.5 22.4 18.2 92 0.8 CALM 0 0 0 0 1014.7 1014.7 0.0
26/06:30am 18.6 21.5 18.3 98 0.2 CALM 0 0 0 0 1014.2 1014.2 0.0
26/06:00am 17.9 19.4 17.7 99 0.1 S 6 6 3 3 1013.9 1013.9 0.0
26/05:30am 18.2 21.0 18.0 99 0.1 CALM 0 0 0 0 1013.2 1013.2 0.0
26/05:00am 18.3 21.0 17.8 97 0.3 CALM 0 4 0 2 1013.0 1013.0 0.0
26/04:30am 18.7 20.8 18.0 96 0.4 W 4 9 2 5 1012.5 1012.5 0.0
26/04:00am 19.3 20.3 18.6 96 0.4 N 11 17 6 9 1011.6 1011.6 0.0
26/03:30am 19.4 20.8 18.7 96 0.4 NW 9 15 5 8 1011.5 1011.5 0.0
26/03:00am 19.3 20.8 18.8 97 0.3 NNW 9 13 5 7 1011.6 1011.6 0.0
26/02:30am 19.7 21.5 18.4 92 0.8 W 6 9 3 5 1012.0 1012.0 0.0
26/02:00am 20.1 20.1 18.9 93 0.8 NNW 17 28 9 15 1011.6 1011.6 0.0
26/01:30am 20.0 20.3 18.8 93 0.8 NNW 15 20 8 11 1011.8 1011.8 0.0
26/01:00am 20.1 20.7 18.6 91 0.9 NNW 13 26 7 14 1012.3 1012.3 0.0
26/12:30am 20.3 19.9 18.8 91 0.9 NNW 19 30 10 16 1012.2 1012.2 0.0
26/12:00am 20.7 19.7 18.8 89 1.2 N 22 35 12 19 1012.6 1012.6 0.0
 
Date/Time
EST
Temp
°C
App
Temp
°C
Dew
Point
°C
Rel
Hum
%
Delta-T
°C
Wind Press
QNH
hPa
Press
MSL
hPa
Rain since
9am
mm
Dir  Spd
km/h
Gust
km/h
Spd
kts
Gust
kts
25/11:30pm 20.9 20.8 18.8 88 1.3 NNW 17 28 9 15 1013.0 1013.0 0.0
25/11:00pm 21.0 20.9 18.8 87 1.4 NNW 17 28 9 15 1013.1 1013.1 0.0
25/10:30pm 21.1 21.3 18.5 85 1.6 NNW 15 24 8 13 1013.3 1013.3 0.0
25/10:00pm 21.4 21.6 18.6 84 1.8 NNW 15 24 8 13 1013.4 1013.4 0.0
25/09:30pm 21.6 21.4 18.4 82 2.0 NNW 17 24 9 13 1013.3 1013.3 0.0
25/09:00pm 21.8 21.4 18.0 79 2.4 NNW 17 24 9 13 1013.1 1013.1 0.0
25/08:30pm 22.0 22.0 18.0 78 2.5 NNW 15 24 8 13 1013.0 1013.0 0.0
25/08:00pm 22.3 22.1 18.5 79 2.4 N 17 26 9 14 1012.8 1012.8 0.0
25/07:30pm 22.7 22.5 18.5 77 2.6 N 17 24 9 13 1012.5 1012.5 0.0
25/07:00pm 23.0 22.5 18.7 77 2.7 N 19 32 10 17 1012.2 1012.2 0.0
25/06:30pm 23.5 22.8 18.6 74 3.1 N 20 32 11 17 1011.8 1011.8 0.0
25/06:00pm 24.1 23.4 18.7 72 3.4 N 20 32 11 17 1011.6 1011.6 0.0
25/05:30pm 24.6 23.7 18.3 68 4.0 N 20 35 11 19 1011.3 1011.3 0.0
25/05:00pm 25.5 24.3 18.4 65 4.5 N 22 30 12 16 1010.9 1010.9 0.0
25/04:30pm 26.3 25.1 18.4 61 5.0 N 22 30 12 16 1010.7 1010.7 0.0
25/04:00pm 27.5 26.8 18.2 57 5.9 N 19 30 10 16 1010.5 1010.5 0.0
25/03:30pm 27.0 26.7 19.6 64 4.8 NNE 20 30 11 16 1010.4 1010.4 0.0
25/03:00pm 27.0 27.7 19.6 64 4.8 NNE 15 22 8 12 1010.6 1010.6 0.0
25/02:30pm 27.2 27.0 19.8 64 4.8 N 20 30 11 16 1010.8 1010.8 0.0
25/02:00pm 27.5 27.1 19.3 61 5.3 NNE 20 32 11 17 1011.0 1011.0 0.0
25/01:30pm 28.6 28.3 19.2 56 6.1 NNE 19 28 10 15 1011.4 1011.4 0.0
25/01:00pm 31.9 29.8 13.6 32 11.0 N 17 26 9 14 1011.8 1011.8 0.0
25/12:30pm 31.1 28.9 14.3 36 10.2 N 19 30 10 16 1012.1 1012.1 0.0
25/12:00pm 30.6 27.8 12.5 33 10.7 NNW 19 30 10 16 1012.7 1012.7 0.0
25/11:30am 30.3 28.0 13.1 34 10.2 NW 17 32 9 17 1013.3 1013.3 0.0
25/11:00am 30.1 28.3 13.4 36 10.0 NW 15 24 8 13 1013.9 1013.9 0.0
25/10:30am 29.0 26.3 13.6 38 9.2 NW 20 32 11 17 1014.1 1014.1 0.0
25/10:00am 27.8 26.2 15.1 46 7.7 NNW 17 28 9 15 1014.6 1014.6 0.0
25/09:30am 26.0 24.2 15.4 52 6.4 NNW 19 28 10 15 1014.8 1014.8 0.0
25/09:00am 24.6 22.3 15.8 58 5.3 N 22 33 12 18 1015.1 1015.1 0.0
25/08:30am 23.6 21.6 16.4 64 4.4 NNW 22 37 12 20 1015.2 1015.2 0.0
25/08:00am 22.3 20.2 17.2 73 3.1 NNW 24 33 13 18 1015.1 1015.1 0.0
25/07:30am 21.4 20.5 17.8 80 2.2 NNW 19 32 10 17 1014.9 1014.9 0.0
25/07:00am 20.7 20.2 17.9 84 1.7 NNW 17 30 9 16 1014.8 1014.8 0.0
25/06:30am 20.2 19.9 18.3 89 1.2 NNW 17 30 9 16 1014.6 1014.6 0.0
25/06:00am 19.7 19.5 18.4 92 0.8 NNW 17 32 9 17 1014.1 1014.1 0.0
25/05:30am 19.5 19.2 18.3 93 0.7 NNW 17 24 9 13 1013.8 1013.8 0.0
25/05:00am 19.7 19.5 18.5 93 0.7 NNW 17 30 9 16 1013.3 1013.3 0.0
25/04:30am 19.6 19.4 18.4 93 0.7 NNW 17 26 9 14 1013.0 1013.0 0.0
25/04:00am 19.7 20.0 18.7 94 0.6 NNW 15 22 8 12 1012.7 1012.7 0.0
25/03:30am 19.8 19.6 18.6 93 0.7 N 17 26 9 14 1012.5 1012.5 0.0
25/03:00am 19.9 20.2 18.7 93 0.7 N 15 20 8 11 1012.5 1012.5 0.0
25/02:30am 19.9 20.2 18.7 93 0.7 NNW 15 24 8 13 1012.7 1012.7 0.0
25/02:00am 20.1 19.7 18.9 93 0.8 N 19 28 10 15 1012.7 1012.7 0.0
25/01:30am 20.2 20.6 18.9 92 0.8 NNW 15 24 8 13 1013.0 1013.0 0.0
25/01:00am 20.2 20.8 18.7 91 0.9 NNW 13 19 7 10 1013.3 1013.3 0.0
25/12:30am 20.5 20.7 18.6 89 1.2 NNW 15 24 8 13 1013.5 1013.5 0.0
25/12:00am 20.7 20.5 18.5 87 1.4 NNW 17 26 9 14 1013.7 1013.7 0.0
 
Date/Time
EST
Temp
°C
App
Temp
°C
Dew
Point
°C
Rel
Hum
%
Delta-T
°C
Wind Press
QNH
hPa
Press
MSL
hPa
Rain since
9am
mm
Dir  Spd
km/h
Gust
km/h
Spd
kts
Gust
kts
24/11:30pm 20.9 20.9 18.1 84 1.7 NNW 15 24 8 13 1013.9 1013.9 0.0
24/11:00pm 21.1 20.7 18.1 83 1.9 NNW 17 28 9 15 1014.0 1014.0 0.0
24/10:30pm 21.0 20.9 17.8 82 2.0 NNW 15 22 8 12 1014.1 1014.1 0.0
24/10:00pm 21.2 21.5 18.0 82 2.0 NNW 13 22 7 12 1013.9 1013.9 0.0
24/09:30pm 21.5 21.4 17.9 80 2.2 NNW 15 24 8 13 1013.9 1013.9 0.0
24/09:00pm 21.7 21.6 17.9 79 2.4 NNW 15 24 8 13 1013.8 1013.8 0.0
24/08:30pm 22.0 21.5 17.8 77 2.6 NNW 17 28 9 15 1013.5 1013.5 0.0
24/08:00pm 22.4 21.2 17.5 74 3.0 NNW 20 32 11 17 1012.9 1012.9 0.0
24/07:30pm 22.6 21.7 17.7 74 3.0 N 19 28 10 15 1012.5 1012.5 0.0
24/07:00pm 22.8 22.3 17.9 74 3.1 N 17 28 9 15 1012.0 1012.0 0.0
24/06:30pm 23.2 21.5 18.1 73 3.2 N 24 35 13 19 1011.6 1011.6 0.0
24/06:00pm 23.7 22.4 18.1 71 3.5 N 22 37 12 20 1011.3 1011.3 0.0
24/05:30pm 24.1 22.6 17.8 68 3.9 N 22 33 12 18 1011.0 1011.0 0.0
24/05:00pm 25.0 23.3 18.0 65 4.4 N 24 35 13 19 1010.5 1010.5 0.0
24/04:30pm 25.6 23.1 18.0 63 4.8 N 28 46 15 25 1010.3 1010.3 0.0
24/04:27pm 25.6 23.1 18.0 63 4.8 N 28 46 15 25 1010.2 1010.2 0.0
24/04:00pm 26.5 24.3 17.8 58 5.5 N 26 37 14 20 1010.1 1010.1 0.0
24/03:30pm 27.1 25.0 18.1 58 5.7 N 26 46 14 25 1009.9 1009.9 0.0
24/03:00pm 27.8 25.5 18.5 57 6.0 N 28 43 15 23 1010.1 1010.1 0.0
24/02:30pm 28.6 26.6 17.5 51 7.0 N 24 37 13 20 1010.3 1010.3 0.0
24/02:00pm 29.9 29.2 18.3 49 7.5 N 19 33 10 18 1010.5 1010.5 0.0
24/01:30pm 29.6 28.4 17.4 47 7.7 N 20 33 11 18 1010.9 1010.9 0.0
24/01:00pm 30.9 29.3 14.9 37 9.8 N 17 28 9 15 1011.2 1011.2 0.0
24/12:30pm 30.7 28.5 14.3 36 9.9 N 19 28 10 15 1011.7 1011.7 0.0
24/12:00pm 30.1 27.5 13.8 37 9.8 NNW 20 30 11 16 1012.4 1012.4 0.0
24/11:30am 29.2 26.8 13.8 39 9.2 NNW 19 33 10 18 1012.9 1012.9 0.0
24/11:00am 28.4 25.5 15.0 44 8.1 NNW 24 37 13 20 1013.5 1013.5 0.0
24/10:30am 27.5 26.1 16.5 51 6.8 NNW 19 32 10 17 1014.0 1014.0 0.0
24/10:00am 26.5 24.8 15.8 51 6.5 N 19 28 10 15 1014.4 1014.4 0.0
24/09:30am 25.6 24.2 16.5 57 5.6 N 19 30 10 16 1014.7 1014.7 0.0
24/09:00am 24.4 21.8 15.9 59 5.2 NNW 24 39 13 21 1014.9 1014.9 0.0
24/08:30am 22.9 21.5 16.9 69 3.7 NNW 20 33 11 18 1015.1 1015.1 0.0
24/08:00am 22.0 20.5 17.8 77 2.6 NNW 22 32 12 17 1015.3 1015.3 0.0
24/07:30am 21.0 20.1 18.2 84 1.7 NNW 20 32 11 17 1015.4 1015.4 0.0
24/07:00am 20.3 20.1 18.4 89 1.2 NNW 17 26 9 14 1015.3 1015.3 0.0
24/06:30am 19.6 20.1 18.4 93 0.7 NNW 13 22 7 12 1015.0 1015.0 0.0
24/06:00am 19.0 19.8 18.2 95 0.5 NNW 11 19 6 10 1014.7 1014.7 0.0
24/05:30am 19.1 19.6 18.4 96 0.4 NNW 13 22 7 12 1014.5 1014.5 0.0
24/05:00am 18.9 19.4 18.4 97 0.3 NNW 13 17 7 9 1014.3 1014.3 0.0
24/04:30am 18.9 19.4 18.4 97 0.3 NNW 13 22 7 12 1014.0 1014.0 0.0
24/04:00am 18.9 19.4 18.4 97 0.3 NNW 13 20 7 11 1013.7 1013.7 0.0
24/03:30am 19.1 19.6 18.4 96 0.4 NNW 13 20 7 11 1013.6 1013.6 0.0
24/03:00am 19.0 19.8 18.2 95 0.5 NNW 11 17 6 9 1013.6 1013.6 0.0
24/02:30am 19.3 19.7 18.1 93 0.7 NNW 13 19 7 10 1013.7 1013.7 0.0
24/02:00am 19.5 19.9 18.2 92 0.8 NNW 13 19 7 10 1013.9 1013.9 0.0
24/01:30am 19.8 20.3 18.3 91 0.9 NNW 13 24 7 13 1014.3 1014.3 0.0
24/01:00am 20.0 19.8 18.5 91 0.9 NNW 17 28 9 15 1014.7 1014.7 0.0
24/12:30am 20.0 19.7 18.3 90 1.1 NNW 17 28 9 15 1014.9 1014.9 0.0
24/12:00am 20.0 19.6 18.1 89 1.2 NNW 17 24 9 13 1015.5 1015.5 0.0
 
Date/Time
EST
Temp
°C
App
Temp
°C
Dew
Point
°C
Rel
Hum
%
Delta-T
°C
Wind Press
QNH
hPa
Press
MSL
hPa
Rain since
9am
mm
Dir  Spd
km/h
Gust
km/h
Spd
kts
Gust
kts
23/11:30pm 19.8 20.7 17.6 87 1.3 NNW 9 19 5 10 1015.6 1015.6 0.0
23/11:00pm 20.2 20.3 17.4 84 1.7 NNW 13 20 7 11 1015.5 1015.5 0.0
23/10:30pm 20.5 19.8 16.5 78 2.4 NNW 15 22 8 12 1015.7 1015.7 0.0
23/10:00pm 20.7 19.7 15.5 72 3.1 NNW 15 22 8 12 1015.8 1015.8 0.0
23/09:30pm 21.0 20.0 14.6 67 3.7 NNW 13 20 7 11 1015.9 1015.9 0.0
23/09:00pm 21.5 20.4 14.4 64 4.1 NNW 13 17 7 9 1015.8 1015.8 0.0
23/08:30pm 21.9 20.3 14.0 61 4.6 N 15 20 8 11 1015.5 1015.5 0.0
23/08:00pm 22.1 21.1 14.7 63 4.4 NNW 13 20 7 11 1015.3 1015.3 0.0
23/07:30pm 22.5 21.6 15.8 66 4.0 NNW 15 26 8 14 1014.9 1014.9 0.0
23/07:00pm 23.0 21.8 16.1 65 4.2 N 17 26 9 14 1014.4 1014.4 0.0
23/06:30pm 23.5 22.3 16.1 63 4.5 N 17 24 9 13 1013.9 1013.9 0.0
23/06:00pm 24.2 23.0 16.2 61 4.9 N 17 26 9 14 1013.5 1013.5 0.0
23/05:30pm 25.2 24.6 16.6 59 5.3 N 15 22 8 12 1013.2 1013.2 0.0
23/05:00pm 26.4 24.9 16.3 53 6.2 N 19 28 10 15 1012.8 1012.8 0.0
23/04:30pm 27.1 24.8 15.8 50 6.9 N 22 33 12 18 1012.6 1012.6 0.0
23/04:00pm 27.8 25.7 16.1 49 7.2 N 22 33 12 18 1012.2 1012.2 0.0
23/03:30pm 28.5 27.3 17.4 51 7.0 N 20 30 11 16 1012.3 1012.3 0.0
23/03:00pm 26.9 26.7 19.3 63 4.9 NE 19 30 10 16 1012.5 1012.5 0.0
23/02:30pm 26.8 26.3 19.9 66 4.5 NE 22 32 12 17 1012.9 1012.9 0.0
23/02:00pm 26.3 25.1 18.4 61 5.0 NE 22 33 12 18 1013.1 1013.1 0.0
23/01:30pm 26.4 24.9 17.7 58 5.5 NE 22 32 12 17 1013.6 1013.6 0.0
23/01:00pm 26.8 26.4 18.1 59 5.5 NE 17 28 9 15 1014.0 1014.0 0.0
23/12:30pm 28.0 27.5 16.9 51 6.9 N 15 24 8 13 1014.4 1014.4 0.0
23/12:00pm 28.8 27.3 15.3 43 8.3 N 17 24 9 13 1014.9 1014.9 0.0
23/11:30am 27.7 25.5 14.3 43 8.0 NNW 19 33 10 18 1015.5 1015.5 0.0
23/11:00am 27.3 26.1 15.0 47 7.4 NNW 15 24 8 13 1016.0 1016.0 0.0
23/10:30am 26.6 24.6 15.0 49 7.0 NNW 19 28 10 15 1016.7 1016.7 0.0
23/10:00am 26.0 24.2 15.4 52 6.4 NNW 19 28 10 15 1017.1 1017.1 0.0
23/09:30am 25.3 24.5 16.2 57 5.6 NNW 15 26 8 14 1017.5 1017.5 0.0
23/09:00am 24.1 23.2 16.9 64 4.4 NNW 17 26 9 14 1017.6 1017.6 19.0
23/08:30am 23.6 22.9 17.3 67 3.9 NW 17 24 9 13 1017.7 1017.7 19.0

Latest Capital City Observations: Canberra | Sydney | Melbourne | Brisbane | Adelaide | Perth | Hobart | Darwin

Other Formats:

Comma delimited format used in spreadsheet applications
http://www.bom.gov.au/fwo/IDQ60901/IDQ60901.94570.axf

JavaScript Object Notation format (JSON) in row-major order
http://www.bom.gov.au/fwo/IDQ60901/IDQ60901.94570.json